createdAt,value
2022-09-11T03:31:59.447Z,0.00
2022-09-11T03:32:58.509Z,0.00
2022-09-11T03:33:58.711Z,0.00
2022-09-11T03:34:58.953Z,0.00
2022-09-11T03:35:59.236Z,0.00
2022-09-11T03:36:59.488Z,0.00
2022-09-11T03:37:59.733Z,0.00
2022-09-11T03:38:59.963Z,0.00
2022-09-11T03:40:00.359Z,0.00
2022-09-11T03:41:00.642Z,0.00
2022-09-11T03:42:00.866Z,0.00
2022-09-11T03:43:01.118Z,0.00
2022-09-11T03:44:01.362Z,0.00
2022-09-11T03:45:01.596Z,0.00
2022-09-11T03:46:01.861Z,0.00
2022-09-11T03:47:02.079Z,0.00
2022-09-11T03:48:02.331Z,0.00
2022-09-11T03:49:02.551Z,0.00
2022-09-11T03:50:02.793Z,0.00
2022-09-11T03:51:03.152Z,0.00
2022-09-11T03:52:03.367Z,0.00
2022-09-11T03:53:03.670Z,0.00
2022-09-11T03:54:03.891Z,0.00
2022-09-11T03:55:04.212Z,0.00
2022-09-11T03:56:04.442Z,0.00
2022-09-11T03:57:04.843Z,0.00
2022-09-11T03:58:05.093Z,0.00
2022-09-11T03:59:06.279Z,0.00
2022-09-11T04:00:05.562Z,4.00
2022-09-11T04:01:05.969Z,4.00
2022-09-11T04:02:06.063Z,4.00
2022-09-11T04:03:06.346Z,4.00
2022-09-11T04:04:06.592Z,4.00
2022-09-11T04:05:06.825Z,4.00
2022-09-11T04:06:07.038Z,4.00
2022-09-11T04:07:07.386Z,8.00
2022-09-11T04:08:07.765Z,8.00
2022-09-11T04:09:08.002Z,8.00
2022-09-11T04:10:08.225Z,8.00
2022-09-11T04:11:08.518Z,12.00
2022-09-11T04:12:08.747Z,16.00
2022-09-11T04:13:09.058Z,16.00
2022-09-11T04:14:09.289Z,20.00
2022-09-11T04:15:09.564Z,20.00
2022-09-11T04:16:09.845Z,24.00
2022-09-11T04:17:10.077Z,24.00
2022-09-11T04:18:10.343Z,28.00
2022-09-11T04:19:10.578Z,28.00
2022-09-11T04:20:10.828Z,24.00
2022-09-11T04:21:11.085Z,36.00
2022-09-11T04:22:11.319Z,36.00
2022-09-11T04:23:11.569Z,36.00
2022-09-11T04:24:11.811Z,44.00
2022-09-11T04:25:12.060Z,64.00
2022-09-11T04:26:12.302Z,68.00
2022-09-11T04:27:12.541Z,68.00
2022-09-11T04:28:12.800Z,72.00
2022-09-11T04:29:13.064Z,72.00
2022-09-11T04:30:13.332Z,68.00
2022-09-11T04:31:13.639Z,72.00
2022-09-11T04:32:13.874Z,80.00
2022-09-11T04:33:14.123Z,80.00
2022-09-11T04:34:14.404Z,76.00
2022-09-11T04:35:14.656Z,76.00
2022-09-11T04:36:14.901Z,92.00
2022-09-11T04:37:15.144Z,88.00
2022-09-11T04:38:15.386Z,108.00
2022-09-11T04:39:15.642Z,120.00
2022-09-11T04:40:15.886Z,132.00
2022-09-11T04:41:16.157Z,144.00
2022-09-11T04:42:16.419Z,140.00
2022-09-11T04:43:16.708Z,148.00
2022-09-11T04:44:16.966Z,236.00
2022-09-11T04:45:17.237Z,204.00
2022-09-11T04:46:17.494Z,224.00
2022-09-11T04:47:17.779Z,264.00
2022-09-11T04:48:18.067Z,300.00
2022-09-11T04:49:18.328Z,388.00
2022-09-11T04:50:18.607Z,524.00
2022-09-11T04:51:18.958Z,576.00
2022-09-11T04:52:19.111Z,664.00
2022-09-11T04:53:19.426Z,700.00
2022-09-11T04:54:19.690Z,768.00
2022-09-11T04:55:20.133Z,840.00
2022-09-11T04:56:20.211Z,836.00
2022-09-11T04:57:20.471Z,956.00
2022-09-11T04:58:20.740Z,928.00
2022-09-11T04:59:21.010Z,908.00
2022-09-11T05:00:21.280Z,900.00
2022-09-11T05:01:21.596Z,948.00
2022-09-11T05:02:21.904Z,888.00
2022-09-11T05:03:22.174Z,832.00
2022-09-11T05:04:25.932Z,856.00
2022-09-11T05:05:22.754Z,960.00
2022-09-11T05:06:23.028Z,1088.00
2022-09-11T05:07:23.285Z,1044.00
2022-09-11T05:08:23.564Z,984.00
2022-09-11T05:09:23.818Z,976.00
2022-09-11T05:10:24.086Z,1036.00
2022-09-11T05:11:24.366Z,1008.00
2022-09-11T05:12:24.637Z,1068.00
2022-09-11T05:13:24.946Z,1044.00
2022-09-11T05:14:25.198Z,952.00
2022-09-11T05:15:25.458Z,772.00
2022-09-11T05:16:25.745Z,828.00
2022-09-11T05:17:25.978Z,764.00
2022-09-11T05:18:26.258Z,580.00
2022-09-11T05:19:26.540Z,624.00
2022-09-11T05:20:26.788Z,528.00
2022-09-11T05:21:27.054Z,528.00
2022-09-11T05:22:27.310Z,568.00
2022-09-11T05:23:27.581Z,480.00
2022-09-11T05:24:27.861Z,516.00
2022-09-11T05:25:28.121Z,532.00
2022-09-11T05:26:28.400Z,764.00
2022-09-11T05:27:28.701Z,796.00
2022-09-11T05:28:28.991Z,856.00
2022-09-11T05:29:32.236Z,800.00
2022-09-11T05:30:29.492Z,888.00
2022-09-11T05:31:29.832Z,1060.00
2022-09-11T05:32:30.127Z,1248.00
2022-09-11T05:33:30.390Z,1392.00
2022-09-11T05:34:30.664Z,1396.00
2022-09-11T05:35:32.484Z,1560.00
2022-09-11T05:36:31.174Z,1596.00
2022-09-11T05:37:31.465Z,1276.00
2022-09-11T05:38:31.745Z,1140.00
2022-09-11T05:39:32.027Z,1140.00
2022-09-11T05:40:32.315Z,984.00
2022-09-11T05:41:32.584Z,980.00
2022-09-11T05:42:32.859Z,860.00
2022-09-11T05:43:33.131Z,808.00
2022-09-11T05:44:33.375Z,992.00
2022-09-11T05:45:33.697Z,928.00
2022-09-11T05:46:33.948Z,924.00
2022-09-11T05:47:34.236Z,1088.00
2022-09-11T05:48:34.550Z,1084.00
2022-09-11T05:49:34.809Z,1224.00
2022-09-11T05:50:35.077Z,1456.00
2022-09-11T05:51:35.340Z,1444.00
2022-09-11T05:52:35.640Z,1252.00
2022-09-11T05:53:35.912Z,1284.00
2022-09-11T05:54:36.192Z,1248.00
2022-09-11T05:55:36.462Z,1568.00
2022-09-11T05:56:36.751Z,1280.00
2022-09-11T05:57:37.051Z,1184.00
2022-09-11T05:58:37.324Z,1044.00
2022-09-11T05:59:37.590Z,1036.00
2022-09-11T06:00:37.854Z,968.00
2022-09-11T06:01:38.157Z,784.00
2022-09-11T06:02:38.431Z,684.00
2022-09-11T06:03:38.718Z,716.00
2022-09-11T06:04:39.004Z,944.00
2022-09-11T06:05:39.277Z,916.00
2022-09-11T06:06:39.557Z,904.00
2022-09-11T06:07:39.836Z,960.00
2022-09-11T06:08:40.109Z,892.00
2022-09-11T06:09:40.368Z,824.00
2022-09-11T06:10:40.635Z,736.00
2022-09-11T06:11:40.935Z,696.00
2022-09-11T06:12:41.207Z,716.00
2022-09-11T06:13:41.609Z,780.00
2022-09-11T06:14:41.746Z,868.00
2022-09-11T06:15:46.478Z,828.00
2022-09-11T06:16:43.375Z,712.00
2022-09-11T06:17:42.475Z,752.00
2022-09-11T06:18:42.748Z,836.00
2022-09-11T06:19:43.011Z,724.00
2022-09-11T06:20:43.269Z,576.00
2022-09-11T06:21:43.543Z,640.00
2022-09-11T06:22:43.822Z,876.00
2022-09-11T06:23:44.120Z,996.00
2022-09-11T06:24:44.460Z,1200.00
2022-09-11T06:25:44.602Z,1344.00
2022-09-11T06:26:44.901Z,1396.00
2022-09-11T06:27:45.184Z,1388.00
2022-09-11T06:28:45.451Z,1072.00
2022-09-11T06:29:45.712Z,944.00
2022-09-11T06:30:46.067Z,1228.00
2022-09-11T06:31:46.315Z,1492.00
2022-09-11T06:32:46.583Z,1612.00
2022-09-11T06:33:46.873Z,1648.00
2022-09-11T06:34:47.189Z,1464.00
2022-09-11T06:35:47.474Z,1744.00
2022-09-11T06:36:51.867Z,2016.00
2022-09-11T06:37:48.026Z,2056.00
2022-09-11T06:38:48.306Z,2292.00
2022-09-11T06:39:48.637Z,2996.00
2022-09-11T06:40:48.927Z,2680.00
2022-09-11T06:41:49.200Z,1952.00
2022-09-11T06:42:49.477Z,2284.00
2022-09-11T06:43:49.771Z,2640.00
2022-09-11T06:44:50.918Z,2772.00
2022-09-11T06:45:50.405Z,2968.00
2022-09-11T06:46:50.710Z,3136.00
2022-09-11T06:47:50.978Z,3340.00
2022-09-11T06:48:51.264Z,3232.00
2022-09-11T06:49:51.539Z,3340.00
2022-09-11T06:50:51.867Z,3568.00
2022-09-11T06:51:52.139Z,3492.00
2022-09-11T06:52:52.469Z,3232.00
2022-09-11T06:53:52.740Z,2960.00
2022-09-11T06:54:53.090Z,2860.00
2022-09-11T06:55:53.371Z,2864.00
2022-09-11T06:56:54.571Z,3172.00
2022-09-11T06:57:53.901Z,3484.00
2022-09-11T06:58:54.322Z,4004.00
2022-09-11T06:59:54.433Z,4528.00
2022-09-11T07:00:54.755Z,4584.00
2022-09-11T07:01:55.154Z,4896.00
2022-09-11T07:02:55.349Z,5408.00
2022-09-11T07:03:55.508Z,6104.00
2022-09-11T07:04:55.810Z,6672.00
2022-09-11T07:05:56.105Z,6488.00
2022-09-11T07:06:56.376Z,6112.00
2022-09-11T07:07:56.644Z,5956.00
2022-09-11T07:08:56.916Z,6156.00
2022-09-11T07:09:57.196Z,6024.00
2022-09-11T07:10:57.488Z,5880.00
2022-09-11T07:11:57.758Z,6208.00
2022-09-11T07:12:58.044Z,7104.00
2022-09-11T07:13:58.318Z,7248.00
2022-09-11T07:14:58.599Z,6760.00
2022-09-11T07:15:58.919Z,6268.00
2022-09-11T07:16:59.186Z,6132.00
2022-09-11T07:17:59.462Z,6084.00
2022-09-11T07:18:59.742Z,6132.00
2022-09-11T07:20:00.023Z,6016.00
2022-09-11T07:21:00.316Z,5120.00
2022-09-11T07:22:00.560Z,4616.00
2022-09-11T07:23:00.811Z,4768.00
2022-09-11T07:24:01.081Z,5512.00
2022-09-11T07:25:03.697Z,5372.00
2022-09-11T07:26:02.651Z,5124.00
2022-09-11T07:27:01.992Z,4808.00
2022-09-11T07:28:02.308Z,4672.00
2022-09-11T07:29:02.571Z,4604.00
2022-09-11T07:30:02.854Z,4760.00
2022-09-11T07:31:03.156Z,4952.00
2022-09-11T07:32:03.560Z,5060.00
2022-09-11T07:33:03.664Z,5204.00
2022-09-11T07:34:03.918Z,5232.00
2022-09-11T07:35:04.158Z,5884.00
2022-09-11T07:36:04.416Z,6344.00
2022-09-11T07:37:04.666Z,6448.00
2022-09-11T07:38:04.898Z,6664.00
2022-09-11T07:39:05.214Z,6596.00
2022-09-11T07:40:05.547Z,6524.00
2022-09-11T07:41:05.721Z,6372.00
2022-09-11T07:42:05.960Z,6552.00
2022-09-11T07:43:06.217Z,7008.00
2022-09-11T07:44:06.467Z,7356.00
2022-09-11T07:45:06.724Z,7388.00
2022-09-11T07:46:07.010Z,7156.00
2022-09-11T07:47:07.242Z,7276.00
2022-09-11T07:48:08.443Z,6692.00
2022-09-11T07:49:07.732Z,6624.00
2022-09-11T07:50:07.991Z,6444.00
2022-09-11T07:51:08.265Z,6508.00
2022-09-11T07:52:08.536Z,6616.00
2022-09-11T07:53:08.773Z,6536.00
2022-09-11T07:54:09.016Z,6636.00
2022-09-11T07:55:09.284Z,6572.00
2022-09-11T07:56:09.552Z,6484.00
2022-09-11T07:57:09.805Z,6564.00
2022-09-11T07:58:10.077Z,6108.00
2022-09-11T07:59:10.306Z,6348.00
2022-09-11T08:00:10.567Z,6564.00
2022-09-11T08:01:10.882Z,6352.00
2022-09-11T08:02:11.078Z,6484.00
2022-09-11T08:03:11.307Z,6908.00
2022-09-11T08:04:11.551Z,7412.00
2022-09-11T08:05:11.818Z,7432.00
2022-09-11T08:06:12.059Z,7472.00
2022-09-11T08:07:12.303Z,7504.00
2022-09-11T08:08:12.560Z,7776.00
2022-09-11T08:09:12.808Z,7964.00
2022-09-11T08:10:28.162Z,7756.00
2022-09-11T08:11:14.352Z,7668.00
2022-09-11T08:12:13.653Z,7524.00
2022-09-11T08:13:13.901Z,7472.00
2022-09-11T08:14:14.160Z,7616.00
2022-09-11T08:15:14.436Z,7676.00
2022-09-11T08:16:14.768Z,7524.00
2022-09-11T08:17:15.012Z,7356.00
2022-09-11T08:18:15.290Z,7116.00
2022-09-11T08:19:15.585Z,6868.00
2022-09-11T08:20:16.582Z,6800.00
2022-09-11T08:21:16.839Z,6884.00
2022-09-11T08:22:16.774Z,7464.00
2022-09-11T08:23:16.710Z,8168.00
2022-09-11T08:24:16.969Z,8572.00
2022-09-11T08:25:17.266Z,8332.00
2022-09-11T08:26:18.269Z,8152.00
2022-09-11T08:27:18.266Z,7916.00
2022-09-11T08:28:18.278Z,8300.00
2022-09-11T08:29:19.288Z,8860.00
2022-09-11T08:30:19.586Z,9216.00
2022-09-11T08:31:19.226Z,8696.00
2022-09-11T08:32:19.478Z,8372.00
2022-09-11T08:33:19.759Z,8012.00
2022-09-11T08:34:19.989Z,7532.00
2022-09-11T08:35:20.251Z,7364.00
2022-09-11T08:36:20.502Z,7368.00
2022-09-11T08:37:20.783Z,7360.00
2022-09-11T08:38:21.023Z,7252.00
2022-09-11T08:39:21.296Z,7396.00
2022-09-11T08:40:21.542Z,7744.00
2022-09-11T08:41:21.815Z,7688.00
2022-09-11T08:42:22.075Z,7720.00
2022-09-11T08:43:22.314Z,7868.00
2022-09-11T08:44:22.545Z,8240.00
2022-09-11T08:45:22.816Z,8440.00
2022-09-11T08:46:23.065Z,8832.00
2022-09-11T08:47:23.315Z,9048.00
2022-09-11T08:48:23.566Z,9200.00
2022-09-11T08:49:23.803Z,8828.00
2022-09-11T08:50:24.060Z,8312.00
2022-09-11T08:51:24.320Z,7940.00
2022-09-11T08:52:24.548Z,8008.00
2022-09-11T08:53:24.798Z,8224.00
2022-09-11T08:54:25.039Z,8140.00
2022-09-11T08:55:25.300Z,8024.00
2022-09-11T08:56:25.550Z,7804.00
2022-09-11T08:57:25.800Z,7424.00
2022-09-11T08:58:26.061Z,7488.00
2022-09-11T08:59:26.300Z,7640.00
2022-09-11T09:00:26.801Z,7924.00
2022-09-11T09:01:26.891Z,7980.00
2022-09-11T09:02:27.184Z,7948.00
2022-09-11T09:03:27.424Z,7864.00
2022-09-11T09:04:27.679Z,8040.00
2022-09-11T09:05:28.003Z,8240.00
2022-09-11T09:06:28.252Z,8244.00
2022-09-11T09:07:28.493Z,8224.00
2022-09-11T09:08:28.733Z,7872.00
2022-09-11T09:09:32.981Z,7636.00
2022-09-11T09:10:30.338Z,7776.00
2022-09-11T09:11:29.634Z,7912.00
2022-09-11T09:12:29.877Z,7916.00
2022-09-11T09:13:30.118Z,7828.00
2022-09-11T09:14:30.387Z,7740.00
2022-09-11T09:15:30.648Z,7924.00
2022-09-11T09:16:30.878Z,7908.00
2022-09-11T09:17:31.128Z,8104.00
2022-09-11T09:18:31.378Z,8188.00
2022-09-11T09:19:31.651Z,7896.00
2022-09-11T09:20:31.899Z,7264.00
2022-09-11T09:21:32.147Z,6624.00
2022-09-11T09:22:32.370Z,5908.00
2022-09-11T09:23:32.692Z,5840.00
2022-09-11T09:24:32.871Z,6712.00
2022-09-11T09:25:33.121Z,7016.00
2022-09-11T09:26:38.195Z,7088.00
2022-09-11T09:27:34.673Z,6592.00
2022-09-11T09:28:33.973Z,5380.00
2022-09-11T09:29:34.243Z,4296.00
2022-09-11T09:30:34.504Z,4008.00
2022-09-11T09:31:34.757Z,4072.00
2022-09-11T09:32:34.995Z,4992.00
2022-09-11T09:33:35.241Z,5796.00
2022-09-11T09:34:35.485Z,6276.00
2022-09-11T09:35:35.746Z,6156.00
2022-09-11T09:36:35.986Z,6620.00
2022-09-11T09:37:36.238Z,7548.00
2022-09-11T09:38:36.486Z,7616.00
2022-09-11T09:39:36.817Z,7712.00
2022-09-11T09:40:37.058Z,7980.00
2022-09-11T09:41:37.313Z,8232.00
2022-09-11T09:42:37.557Z,8212.00
2022-09-11T09:43:37.790Z,8196.00
2022-09-11T09:44:38.040Z,7896.00
2022-09-11T09:45:38.297Z,7612.00
2022-09-11T09:46:38.540Z,7860.00
2022-09-11T09:47:38.779Z,8096.00
2022-09-11T09:48:39.011Z,7632.00
2022-09-11T09:49:39.247Z,7436.00
2022-09-11T09:50:39.463Z,8100.00
2022-09-11T09:51:39.701Z,8828.00
2022-09-11T09:52:39.940Z,9428.00
2022-09-11T09:53:40.153Z,9692.00
2022-09-11T09:54:40.534Z,9564.00
2022-09-11T09:55:40.755Z,9492.00
2022-09-11T09:56:40.985Z,8872.00
2022-09-11T09:57:41.206Z,8148.00
2022-09-11T09:58:41.473Z,7152.00
2022-09-11T09:59:41.686Z,6640.00
2022-09-11T10:00:41.927Z,6716.00
2022-09-11T10:01:42.266Z,6636.00
2022-09-11T10:02:42.427Z,6584.00
2022-09-11T10:03:42.668Z,6648.00
2022-09-11T10:04:42.907Z,7036.00
2022-09-11T10:05:43.150Z,6276.00
2022-09-11T10:06:43.380Z,5300.00
2022-09-11T10:07:43.599Z,5016.00
2022-09-11T10:08:43.961Z,5688.00
2022-09-11T10:09:44.112Z,5936.00
2022-09-11T10:10:44.370Z,6016.00
2022-09-11T10:11:44.871Z,6360.00
2022-09-11T10:12:45.221Z,7408.00
2022-09-11T10:13:45.442Z,8184.00
2022-09-11T10:14:53.153Z,8792.00
2022-09-11T10:15:47.749Z,8968.00
2022-09-11T10:16:46.203Z,8512.00
2022-09-11T10:17:47.265Z,8652.00
2022-09-11T10:18:47.482Z,8336.00
2022-09-11T10:19:46.924Z,8332.00
2022-09-11T10:20:47.944Z,8132.00
2022-09-11T10:21:47.416Z,7812.00
2022-09-11T10:22:47.697Z,7588.00
2022-09-11T10:23:47.947Z,7200.00
2022-09-11T10:24:48.207Z,6288.00
2022-09-11T10:25:48.456Z,5688.00
2022-09-11T10:26:48.728Z,5816.00
2022-09-11T10:27:48.967Z,6084.00
2022-09-11T10:28:49.230Z,6364.00
2022-09-11T10:29:49.450Z,6516.00
2022-09-11T10:30:49.721Z,7852.00
2022-09-11T10:31:49.939Z,9180.00
2022-09-11T10:32:50.160Z,9648.00
2022-09-11T10:33:50.389Z,10872.00
2022-09-11T10:34:50.669Z,12208.00
2022-09-11T10:35:50.931Z,12188.00
2022-09-11T10:36:51.183Z,12292.00
2022-09-11T10:37:51.428Z,11596.00
2022-09-11T10:38:51.674Z,9716.00
2022-09-11T10:39:51.957Z,8712.00
2022-09-11T10:40:52.234Z,7016.00
2022-09-11T10:41:52.455Z,5504.00
2022-09-11T10:42:52.686Z,4444.00
2022-09-11T10:43:52.917Z,4104.00
2022-09-11T10:44:53.181Z,3780.00
2022-09-11T10:45:53.404Z,3532.00
2022-09-11T10:46:53.666Z,3224.00
2022-09-11T10:47:53.917Z,2632.00
2022-09-11T10:48:54.137Z,2196.00
2022-09-11T10:49:54.378Z,2160.00
2022-09-11T10:50:54.617Z,2476.00
2022-09-11T10:51:54.828Z,2712.00
2022-09-11T10:52:55.070Z,3012.00
2022-09-11T10:53:55.310Z,3336.00
2022-09-11T10:54:55.539Z,3560.00
2022-09-11T10:55:55.771Z,3636.00
2022-09-11T10:56:56.002Z,3440.00
2022-09-11T10:57:56.222Z,2876.00
2022-09-11T10:58:56.575Z,2544.00
2022-09-11T10:59:56.897Z,2608.00
2022-09-11T11:00:57.087Z,2936.00
2022-09-11T11:01:57.415Z,3408.00
2022-09-11T11:02:57.580Z,3740.00
2022-09-11T11:03:57.823Z,3840.00
2022-09-11T11:04:58.070Z,3720.00
2022-09-11T11:05:58.285Z,3592.00
2022-09-11T11:06:58.662Z,3448.00
2022-09-11T11:07:58.879Z,3344.00
2022-09-11T11:08:59.126Z,3552.00
2022-09-11T11:09:59.386Z,4324.00
2022-09-11T11:10:59.615Z,5564.00
2022-09-11T11:11:59.837Z,6808.00
2022-09-11T11:13:00.070Z,7760.00
2022-09-11T11:14:00.290Z,7820.00
2022-09-11T11:15:00.660Z,7728.00
2022-09-11T11:16:00.924Z,7604.00
2022-09-11T11:17:01.150Z,7252.00
2022-09-11T11:18:01.370Z,7192.00
2022-09-11T11:19:01.609Z,6920.00
2022-09-11T11:20:01.843Z,6496.00
2022-09-11T11:21:02.071Z,6240.00
2022-09-11T11:22:02.300Z,6132.00
2022-09-11T11:23:02.533Z,6044.00
2022-09-11T11:24:02.763Z,6244.00
2022-09-11T11:25:03.010Z,6712.00
2022-09-11T11:26:03.233Z,6248.00
2022-09-11T11:27:03.463Z,4496.00
2022-09-11T11:28:03.720Z,4004.00
2022-09-11T11:29:03.939Z,4408.00
2022-09-11T11:30:04.164Z,4884.00
2022-09-11T11:31:04.429Z,5456.00
2022-09-11T11:32:04.687Z,5592.00
2022-09-11T11:33:04.920Z,5644.00
2022-09-11T11:34:05.167Z,5664.00
2022-09-11T11:35:05.407Z,5532.00
2022-09-11T11:36:05.626Z,5108.00
2022-09-11T11:37:05.858Z,4364.00
2022-09-11T11:38:06.078Z,3744.00
2022-09-11T11:39:06.341Z,3084.00
2022-09-11T11:40:06.592Z,2792.00
2022-09-11T11:41:06.809Z,2644.00
2022-09-11T11:42:07.051Z,2492.00
2022-09-11T11:43:07.282Z,2372.00
2022-09-11T11:44:07.519Z,2396.00
2022-09-11T11:45:07.755Z,2344.00
2022-09-11T11:46:08.037Z,2324.00
2022-09-11T11:47:08.259Z,2292.00
2022-09-11T11:48:08.472Z,2200.00
2022-09-11T11:49:08.733Z,2112.00
2022-09-11T11:50:08.994Z,2212.00
2022-09-11T11:51:09.223Z,2240.00
2022-09-11T11:52:09.473Z,2228.00
2022-09-11T11:53:09.715Z,2228.00
2022-09-11T11:54:09.976Z,2212.00
2022-09-11T11:55:10.240Z,2200.00
2022-09-11T11:56:10.468Z,2192.00
2022-09-11T11:57:10.709Z,2200.00
2022-09-11T11:58:10.947Z,2208.00
2022-09-11T11:59:11.225Z,2228.00
2022-09-11T12:00:11.584Z,2152.00
2022-09-11T12:01:11.868Z,2148.00
2022-09-11T12:02:12.125Z,2420.00
2022-09-11T12:03:12.403Z,2444.00
2022-09-11T12:04:12.641Z,2400.00
2022-09-11T12:05:12.905Z,2504.00
2022-09-11T12:06:13.130Z,2528.00
2022-09-11T12:07:13.376Z,2500.00
2022-09-11T12:08:13.592Z,2592.00
2022-09-11T12:09:13.850Z,2420.00
2022-09-11T12:10:14.121Z,2328.00
2022-09-11T12:11:14.341Z,2372.00
2022-09-11T12:12:14.823Z,2304.00
2022-09-11T12:13:15.682Z,2268.00
2022-09-11T12:14:16.607Z,2296.00
2022-09-11T12:15:15.494Z,2532.00
2022-09-11T12:16:15.997Z,2364.00
2022-09-11T12:17:16.734Z,2476.00
2022-09-11T12:18:16.684Z,2308.00
2022-09-11T12:19:17.223Z,2280.00
2022-09-11T12:20:16.817Z,2140.00
2022-09-11T12:21:17.067Z,2032.00
2022-09-11T12:22:17.334Z,2052.00
2022-09-11T12:23:18.340Z,2184.00
2022-09-11T12:24:18.207Z,2244.00
2022-09-11T12:25:18.166Z,2648.00
2022-09-11T12:26:19.169Z,2744.00
2022-09-11T12:27:19.521Z,2784.00
2022-09-11T12:28:18.990Z,2520.00
2022-09-11T12:29:19.273Z,2504.00
2022-09-11T12:30:19.509Z,2580.00
2022-09-11T12:31:19.793Z,3132.00
2022-09-11T12:32:20.040Z,3852.00
2022-09-11T12:33:20.316Z,4476.00
2022-09-11T12:34:20.564Z,4828.00
2022-09-11T12:35:20.802Z,4436.00
2022-09-11T12:36:21.054Z,3320.00
2022-09-11T12:37:21.309Z,3048.00
2022-09-11T12:38:21.583Z,3084.00
2022-09-11T12:39:21.812Z,3192.00
2022-09-11T12:40:22.064Z,3068.00
2022-09-11T12:41:22.305Z,2940.00
2022-09-11T12:42:22.534Z,2908.00
2022-09-11T12:43:22.767Z,2588.00
2022-09-11T12:44:23.004Z,2460.00
2022-09-11T12:45:23.241Z,2720.00
2022-09-11T12:46:23.522Z,2728.00
2022-09-11T12:47:23.727Z,2932.00
2022-09-11T12:48:23.978Z,2976.00
2022-09-11T12:49:24.351Z,3016.00
2022-09-11T12:50:24.558Z,2996.00
2022-09-11T12:51:24.780Z,3136.00
2022-09-11T12:52:25.017Z,3192.00
2022-09-11T12:53:25.266Z,3404.00
2022-09-11T12:54:25.499Z,3584.00
2022-09-11T12:55:25.733Z,3808.00
2022-09-11T12:56:25.970Z,4132.00
2022-09-11T12:57:26.215Z,4784.00
2022-09-11T12:58:26.463Z,5628.00
2022-09-11T12:59:26.730Z,6276.00
2022-09-11T13:00:26.963Z,6688.00
2022-09-11T13:01:27.281Z,7172.00
2022-09-11T13:02:27.538Z,7656.00
2022-09-11T13:03:27.823Z,7936.00
2022-09-11T13:04:28.061Z,7908.00
2022-09-11T13:05:28.317Z,7308.00
2022-09-11T13:06:28.546Z,6936.00
2022-09-11T13:07:28.800Z,6188.00
2022-09-11T13:08:29.040Z,4984.00
2022-09-11T13:09:29.277Z,3960.00
2022-09-11T13:10:29.506Z,3136.00
2022-09-11T13:11:29.758Z,2576.00
2022-09-11T13:12:29.978Z,2004.00
2022-09-11T13:13:30.218Z,1504.00
2022-09-11T13:14:30.460Z,1192.00
2022-09-11T13:15:30.691Z,1040.00
2022-09-11T13:16:30.909Z,896.00
2022-09-11T13:17:31.267Z,760.00
2022-09-11T13:18:31.522Z,672.00
2022-09-11T13:19:31.851Z,672.00
2022-09-11T13:20:32.191Z,748.00
2022-09-11T13:21:32.533Z,984.00
2022-09-11T13:22:32.767Z,1552.00
2022-09-11T13:23:33.002Z,1952.00
2022-09-11T13:24:33.231Z,1840.00
2022-09-11T13:25:33.466Z,1384.00
2022-09-11T13:26:33.684Z,1040.00
2022-09-11T13:27:34.046Z,908.00
2022-09-11T13:28:34.452Z,820.00
2022-09-11T13:29:34.657Z,856.00
2022-09-11T13:30:34.998Z,912.00
2022-09-11T13:31:35.365Z,840.00
2022-09-11T13:32:35.584Z,612.00
2022-09-11T13:33:35.938Z,556.00
2022-09-11T13:34:36.285Z,568.00
2022-09-11T13:35:36.508Z,660.00
2022-09-11T13:36:36.879Z,1028.00
2022-09-11T13:37:37.130Z,1284.00
2022-09-11T13:38:37.380Z,1348.00
2022-09-11T13:39:37.678Z,1652.00
2022-09-11T13:40:37.930Z,2356.00
2022-09-11T13:41:38.159Z,3380.00
2022-09-11T13:42:38.391Z,4040.00
2022-09-11T13:43:38.640Z,4448.00
2022-09-11T13:44:38.874Z,5016.00
2022-09-11T13:45:39.124Z,5628.00
2022-09-11T13:46:39.362Z,5984.00
2022-09-11T13:47:39.592Z,6196.00
2022-09-11T13:48:39.832Z,6424.00
2022-09-11T13:49:40.072Z,6504.00
2022-09-11T13:50:40.303Z,6460.00
2022-09-11T13:51:40.548Z,6292.00
2022-09-11T13:52:40.784Z,5768.00
2022-09-11T13:53:41.025Z,5220.00
2022-09-11T13:54:41.264Z,4852.00
2022-09-11T13:55:41.478Z,4580.00
2022-09-11T13:56:41.712Z,4284.00
2022-09-11T13:57:41.951Z,4020.00
2022-09-11T13:58:42.198Z,3848.00
2022-09-11T13:59:42.446Z,3640.00
2022-09-11T14:00:42.675Z,3528.00
2022-09-11T14:01:43.135Z,3548.00
2022-09-11T14:02:43.404Z,3592.00
2022-09-11T14:03:43.692Z,3532.00
2022-09-11T14:04:43.989Z,3384.00
2022-09-11T14:05:44.294Z,3184.00
2022-09-11T14:06:44.492Z,2936.00
2022-09-11T14:07:44.751Z,2796.00
2022-09-11T14:08:45.014Z,2700.00
2022-09-11T14:09:45.233Z,2652.00
2022-09-11T14:10:45.904Z,2652.00
2022-09-11T14:11:45.841Z,2716.00
2022-09-11T14:12:46.836Z,2848.00
2022-09-11T14:13:46.421Z,2980.00
2022-09-11T14:14:47.484Z,3080.00
2022-09-11T14:15:46.934Z,3204.00
2022-09-11T14:16:47.183Z,3428.00
2022-09-11T14:17:47.424Z,3792.00
2022-09-11T14:18:47.656Z,4252.00
2022-09-11T14:19:47.896Z,4656.00
2022-09-11T14:20:48.137Z,4884.00
2022-09-11T14:21:48.381Z,4936.00
2022-09-11T14:22:48.648Z,4828.00
2022-09-11T14:23:48.891Z,4632.00
2022-09-11T14:24:49.108Z,4480.00
2022-09-11T14:25:49.356Z,4464.00
2022-09-11T14:26:49.574Z,4464.00
2022-09-11T14:27:49.832Z,4432.00
2022-09-11T14:28:50.069Z,4368.00
2022-09-11T14:29:50.290Z,4252.00
2022-09-11T14:30:50.707Z,4160.00
2022-09-11T14:31:50.971Z,4092.00
2022-09-11T14:32:51.264Z,4032.00
2022-09-11T14:33:51.495Z,4000.00
2022-09-11T14:34:51.854Z,4028.00
2022-09-11T14:35:52.085Z,4080.00
2022-09-11T14:36:52.377Z,4168.00
2022-09-11T14:37:52.614Z,4252.00
2022-09-11T14:38:52.855Z,4268.00
2022-09-11T14:39:53.115Z,4252.00
2022-09-11T14:40:53.353Z,4268.00
2022-09-11T14:41:53.583Z,4476.00
2022-09-11T14:42:53.843Z,4488.00
2022-09-11T14:43:54.057Z,4604.00
2022-09-11T14:44:54.455Z,4624.00
2022-09-11T14:45:54.678Z,4620.00
2022-09-11T14:46:55.113Z,4584.00
2022-09-11T14:47:55.249Z,4640.00
2022-09-11T14:48:55.547Z,4708.00
2022-09-11T14:49:55.786Z,4808.00
2022-09-11T14:50:56.070Z,4840.00
2022-09-11T14:51:56.329Z,4804.00
2022-09-11T14:52:56.588Z,4712.00
2022-09-11T14:53:56.841Z,4644.00
2022-09-11T14:54:57.071Z,4636.00
2022-09-11T14:55:57.331Z,4620.00
2022-09-11T14:56:57.632Z,4584.00
2022-09-11T14:57:57.877Z,4500.00
2022-09-11T14:58:58.094Z,4196.00
2022-09-11T14:59:58.333Z,3984.00
2022-09-11T15:00:58.558Z,3740.00
2022-09-11T15:01:58.839Z,3440.00
2022-09-11T15:02:59.092Z,3168.00
2022-09-11T15:03:59.294Z,2976.00
2022-09-11T15:04:59.533Z,2852.00
2022-09-11T15:05:59.786Z,2788.00
2022-09-11T15:07:00.077Z,2732.00
2022-09-11T15:08:00.633Z,2700.00
2022-09-11T15:09:00.567Z,2708.00
2022-09-11T15:10:00.797Z,2756.00
2022-09-11T15:11:01.048Z,2600.00
2022-09-11T15:12:01.297Z,2620.00
2022-09-11T15:13:01.530Z,2452.00
2022-09-11T15:14:20.347Z,2452.00
2022-09-11T15:15:03.511Z,2392.00
2022-09-11T15:16:02.396Z,2368.00
2022-09-11T15:17:02.661Z,2348.00
2022-09-11T15:18:02.909Z,2252.00
2022-09-11T15:19:03.149Z,2244.00
2022-09-11T15:20:03.398Z,2248.00
2022-09-11T15:21:03.653Z,2284.00
2022-09-11T15:22:03.910Z,2300.00
2022-09-11T15:23:04.177Z,2292.00
2022-09-11T15:24:04.411Z,2372.00
2022-09-11T15:25:04.663Z,2384.00
2022-09-11T15:26:04.922Z,2412.00
2022-09-11T15:27:05.177Z,2448.00
2022-09-11T15:28:05.408Z,2536.00
2022-09-11T15:29:05.666Z,2756.00
2022-09-11T15:30:05.896Z,3104.00
2022-09-11T15:31:06.214Z,3456.00
2022-09-11T15:32:17.828Z,3564.00
2022-09-11T15:33:06.725Z,3556.00
2022-09-11T15:34:06.959Z,3164.00
2022-09-11T15:35:07.197Z,2520.00
2022-09-11T15:36:07.418Z,2108.00
2022-09-11T15:37:07.671Z,1940.00
2022-09-11T15:38:07.913Z,1772.00
2022-09-11T15:39:08.167Z,1824.00
2022-09-11T15:40:08.456Z,1944.00
2022-09-11T15:41:08.685Z,1916.00
2022-09-11T15:42:08.962Z,1740.00
2022-09-11T15:43:09.201Z,1672.00
2022-09-11T15:44:09.434Z,1776.00
2022-09-11T15:45:09.693Z,2020.00
2022-09-11T15:46:09.932Z,2324.00
2022-09-11T15:47:10.184Z,2464.00
2022-09-11T15:48:10.417Z,2468.00